createdAt,value
2022-09-30T10:33:48.442Z,12.40
2022-09-30T10:36:21.404Z,12.45
2022-09-30T10:39:04.140Z,12.49
2022-09-30T10:41:39.605Z,12.54
2022-09-30T10:44:17.709Z,12.58
2022-09-30T10:46:50.961Z,12.54
2022-09-30T10:49:30.602Z,12.52
2022-09-30T10:52:02.530Z,12.46
2022-09-30T10:54:55.221Z,12.37
2022-09-30T10:57:28.779Z,12.37
2022-09-30T11:00:05.607Z,12.31
2022-09-30T11:02:40.970Z,12.30
2022-09-30T11:05:19.330Z,12.30
2022-09-30T11:07:55.005Z,12.42
2022-09-30T11:10:36.043Z,12.54
2022-09-30T11:13:12.267Z,12.68
2022-09-30T11:15:46.363Z,12.74
2022-09-30T11:18:21.272Z,12.89
2022-09-30T11:20:56.529Z,12.77
2022-09-30T11:23:30.404Z,12.81
2022-09-30T11:26:04.507Z,12.71
2022-09-30T11:28:54.125Z,12.70
2022-09-30T11:31:31.460Z,12.71
2022-09-30T11:34:29.823Z,12.77
2022-09-30T11:37:10.292Z,12.77
2022-09-30T11:40:02.098Z,12.74
2022-09-30T11:42:39.199Z,12.75
2022-09-30T11:45:30.777Z,12.70
2022-09-30T11:48:22.729Z,12.70
2022-09-30T11:51:01.353Z,12.64
2022-09-30T11:53:48.781Z,12.60
2022-09-30T11:56:33.889Z,12.56
2022-09-30T11:59:07.567Z,12.49
2022-09-30T12:01:43.222Z,12.46
2022-09-30T12:04:16.995Z,12.44
2022-09-30T12:06:51.938Z,12.48
2022-09-30T12:09:26.885Z,12.55
2022-09-30T12:11:59.812Z,12.59
2022-09-30T12:14:35.215Z,12.64
2022-09-30T12:17:12.216Z,12.69
2022-09-30T12:19:46.937Z,12.75
2022-09-30T12:22:20.592Z,12.82
2022-09-30T12:24:51.079Z,12.84
2022-09-30T12:27:25.029Z,12.81
2022-09-30T12:30:17.841Z,12.88
2022-09-30T12:33:23.243Z,12.94
2022-09-30T12:36:23.390Z,13.01
2022-09-30T12:39:38.529Z,13.10
2022-09-30T12:42:27.611Z,13.21
2022-09-30T12:45:35.434Z,13.32
2022-09-30T12:48:07.897Z,13.40
2022-09-30T12:50:43.193Z,13.50
2022-09-30T12:53:22.128Z,13.61
2022-09-30T12:55:52.448Z,13.67
2022-09-30T12:58:30.856Z,13.63
2022-09-30T13:01:05.642Z,13.64
2022-09-30T13:03:53.489Z,13.63
2022-09-30T13:06:25.194Z,13.56
2022-09-30T13:09:22.754Z,13.48
2022-09-30T13:12:30.374Z,13.43
2022-09-30T13:15:43.509Z,13.47
2022-09-30T13:19:01.924Z,13.50
2022-09-30T13:21:32.221Z,13.53
2022-09-30T13:24:02.184Z,13.59
2022-09-30T13:26:49.530Z,13.70
2022-09-30T13:29:50.325Z,13.93
2022-09-30T13:32:37.250Z,14.09
2022-09-30T13:35:37.501Z,14.11
2022-09-30T13:38:20.117Z,14.14
2022-09-30T13:41:07.245Z,14.08
2022-09-30T13:43:42.093Z,14.01
2022-09-30T13:46:23.684Z,13.93
2022-09-30T13:48:58.584Z,13.86
2022-09-30T13:51:31.862Z,13.87
2022-09-30T13:54:07.314Z,13.88
2022-09-30T13:56:40.986Z,13.85
2022-09-30T13:59:33.452Z,13.85
2022-09-30T14:02:38.286Z,13.83
2022-09-30T14:05:36.589Z,13.87
2022-09-30T14:08:47.022Z,13.89
2022-09-30T14:11:28.052Z,14.14
2022-09-30T14:14:14.792Z,14.26
2022-09-30T14:17:15.096Z,14.54
2022-09-30T14:19:58.317Z,15.08
2022-09-30T14:22:30.107Z,15.38
2022-09-30T14:24:59.582Z,15.45
2022-09-30T14:27:46.480Z,15.34
2022-09-30T14:30:20.071Z,15.40
2022-09-30T14:32:52.077Z,15.38
2022-09-30T14:35:24.465Z,15.49
2022-09-30T14:37:58.156Z,15.55
2022-09-30T14:40:30.486Z,15.49
2022-09-30T14:43:02.822Z,15.29
2022-09-30T14:45:35.355Z,15.08
2022-09-30T14:48:10.193Z,14.88
2022-09-30T14:50:51.068Z,14.68
2022-09-30T14:53:30.745Z,14.50
2022-09-30T14:56:00.632Z,14.34
2022-09-30T14:58:32.439Z,14.22
2022-09-30T15:01:08.511Z,14.09
2022-09-30T15:03:40.590Z,13.97
2022-09-30T15:06:19.984Z,13.85
2022-09-30T15:08:52.546Z,13.76
2022-09-30T15:11:25.991Z,13.70
2022-09-30T15:14:00.061Z,13.69
2022-09-30T15:16:31.765Z,13.61
2022-09-30T15:19:02.445Z,13.55
2022-09-30T15:21:32.878Z,13.51
2022-09-30T15:24:03.809Z,13.49
2022-09-30T15:26:34.109Z,13.48
2022-09-30T15:29:05.476Z,13.45
2022-09-30T15:31:35.687Z,13.42
2022-09-30T15:34:08.172Z,13.39
2022-09-30T15:36:38.082Z,13.33
2022-09-30T15:39:21.893Z,13.27
2022-09-30T15:41:52.465Z,13.21
2022-09-30T15:44:38.662Z,13.12
2022-09-30T15:47:09.389Z,13.07
2022-09-30T15:49:49.898Z,12.99
2022-09-30T15:52:33.394Z,12.93
2022-09-30T15:55:36.990Z,12.88
2022-09-30T15:58:06.187Z,12.81
2022-09-30T16:00:39.100Z,12.77
2022-09-30T16:03:25.052Z,12.73
2022-09-30T16:05:54.840Z,12.70
2022-09-30T16:08:26.777Z,12.64
2022-09-30T16:10:59.564Z,12.60
2022-09-30T16:13:31.822Z,12.57
2022-09-30T16:16:02.107Z,12.50
2022-09-30T16:18:34.785Z,12.43
2022-09-30T16:21:06.300Z,12.37
2022-09-30T16:23:38.513Z,12.29
2022-09-30T16:26:24.494Z,12.22
2022-09-30T16:28:53.879Z,12.14
2022-09-30T16:31:23.603Z,12.04
2022-09-30T16:33:53.051Z,12.00
2022-09-30T16:36:22.218Z,11.92
2022-09-30T16:38:51.426Z,11.85
2022-09-30T16:41:21.953Z,11.78
2022-09-30T16:43:51.270Z,11.69
2022-09-30T16:46:20.488Z,11.63
2022-09-30T16:48:49.621Z,11.57
2022-09-30T16:51:18.773Z,11.50
2022-09-30T16:53:48.093Z,11.45
2022-09-30T16:56:19.410Z,11.40
2022-09-30T16:58:49.951Z,11.37
2022-09-30T17:01:21.195Z,11.30
2022-09-30T17:03:51.140Z,11.23
2022-09-30T17:06:22.225Z,11.18
2022-09-30T17:08:53.475Z,11.14
2022-09-30T17:11:27.832Z,11.10
2022-09-30T17:13:58.421Z,11.05
2022-09-30T17:16:28.143Z,11.02
2022-09-30T17:18:57.501Z,10.97
2022-09-30T17:21:28.172Z,10.97
2022-09-30T17:23:57.887Z,10.94
2022-09-30T17:26:28.235Z,10.90
2022-09-30T17:29:14.611Z,10.87
2022-09-30T17:31:48.036Z,10.83
2022-09-30T17:34:18.116Z,10.80
2022-09-30T17:36:47.262Z,10.78
2022-09-30T17:39:16.617Z,10.75
2022-09-30T17:42:03.454Z,10.75
2022-09-30T17:44:33.980Z,10.71
2022-09-30T17:47:03.124Z,10.69
2022-09-30T17:49:34.278Z,10.67
2022-09-30T17:52:04.105Z,10.64
2022-09-30T17:54:34.424Z,10.61
2022-09-30T17:57:03.639Z,10.62
2022-09-30T17:59:34.475Z,10.57
2022-09-30T18:02:03.798Z,10.60
2022-09-30T18:04:35.404Z,10.54
2022-09-30T18:07:04.693Z,10.55
2022-09-30T18:09:37.155Z,10.50
2022-09-30T18:12:07.318Z,10.49
2022-09-30T18:14:38.338Z,10.49
2022-09-30T18:17:07.917Z,10.47
2022-09-30T18:19:37.261Z,10.47
2022-09-30T18:22:06.381Z,10.48
2022-09-30T18:24:53.394Z,10.47
2022-09-30T18:27:24.098Z,10.49
2022-09-30T18:29:54.712Z,10.49
2022-09-30T18:32:23.862Z,10.49
2022-09-30T18:34:53.084Z,10.49
2022-09-30T18:37:22.967Z,10.48
2022-09-30T18:39:52.530Z,10.48
2022-09-30T18:42:21.641Z,10.48
2022-09-30T18:44:50.885Z,10.48
2022-09-30T18:47:22.635Z,10.47
2022-09-30T18:49:52.087Z,10.47
2022-09-30T18:52:21.506Z,10.46
2022-09-30T18:54:51.229Z,10.48
2022-09-30T18:57:21.584Z,10.47
2022-09-30T18:59:51.245Z,10.45
2022-09-30T19:02:22.027Z,10.46
2022-09-30T19:04:51.592Z,10.46
2022-09-30T19:07:22.132Z,10.46
2022-09-30T19:09:51.741Z,10.44
2022-09-30T19:12:22.623Z,10.40
2022-09-30T19:14:52.228Z,10.36
2022-09-30T19:17:26.402Z,10.32
2022-09-30T19:19:56.034Z,10.32
2022-09-30T19:22:25.979Z,10.28
2022-09-30T19:24:55.553Z,10.28
2022-09-30T19:27:27.235Z,10.25
2022-09-30T19:29:59.346Z,10.21
2022-09-30T19:32:34.497Z,10.18
2022-09-30T19:35:06.836Z,10.15
2022-09-30T19:37:37.244Z,10.13
2022-09-30T19:40:20.656Z,10.13
2022-09-30T19:42:51.917Z,10.12
2022-09-30T19:45:25.716Z,10.08
2022-09-30T19:47:58.478Z,10.08
2022-09-30T19:50:28.169Z,10.06
2022-09-30T19:52:57.908Z,10.05
2022-09-30T19:55:28.484Z,10.03
2022-09-30T19:57:58.467Z,10.04
2022-09-30T20:00:27.613Z,10.04
2022-09-30T20:02:59.692Z,10.06
2022-09-30T20:05:30.443Z,10.07
2022-09-30T20:08:00.282Z,10.09
2022-09-30T20:10:29.941Z,10.09
2022-09-30T20:12:59.573Z,10.07
2022-09-30T20:15:46.533Z,10.04
2022-09-30T20:18:17.089Z,10.02
2022-09-30T20:20:47.016Z,10.00
2022-09-30T20:23:16.392Z,9.97
2022-09-30T20:25:45.991Z,9.98
2022-09-30T20:28:15.367Z,9.97
2022-09-30T20:30:45.372Z,9.95
2022-09-30T20:33:18.982Z,9.93
2022-09-30T20:35:49.041Z,9.92
2022-09-30T20:38:24.781Z,9.91
2022-09-30T20:40:58.271Z,9.91
2022-09-30T20:43:30.047Z,9.88
2022-09-30T20:46:02.570Z,9.85
2022-09-30T20:48:34.699Z,9.82
2022-09-30T20:51:06.376Z,9.79
2022-09-30T20:53:39.719Z,9.74
2022-09-30T20:56:10.596Z,9.70
2022-09-30T20:58:40.555Z,9.63
2022-09-30T21:01:13.833Z,9.58
2022-09-30T21:03:44.816Z,9.49
2022-09-30T21:06:14.088Z,9.40
2022-09-30T21:08:43.529Z,9.33
2022-09-30T21:11:13.362Z,9.24
2022-09-30T21:13:45.028Z,9.16
2022-09-30T21:16:17.843Z,9.07
2022-09-30T21:18:50.638Z,8.96
2022-09-30T21:21:21.215Z,8.89
2022-09-30T21:23:53.571Z,8.82
2022-09-30T21:26:22.799Z,8.79
2022-09-30T21:28:52.009Z,8.72
2022-09-30T21:31:22.964Z,8.65
2022-09-30T21:33:55.235Z,8.57
2022-09-30T21:36:25.106Z,8.50
2022-09-30T21:38:54.755Z,8.43
2022-09-30T21:41:23.908Z,8.36
2022-09-30T21:43:53.065Z,8.28
2022-09-30T21:46:23.221Z,8.19
2022-09-30T21:49:05.378Z,8.11
2022-09-30T21:51:36.376Z,8.04
2022-09-30T21:54:05.946Z,7.94
2022-09-30T21:56:35.083Z,7.87
2022-09-30T21:59:04.716Z,7.77
2022-09-30T22:01:34.701Z,7.72
2022-09-30T22:04:06.676Z,7.67
2022-09-30T22:06:36.096Z,7.63
2022-09-30T22:09:05.632Z,7.58
2022-09-30T22:11:35.624Z,7.56
2022-09-30T22:14:05.129Z,7.54
2022-09-30T22:16:35.729Z,7.52
2022-09-30T22:19:08.948Z,7.51
2022-09-30T22:21:38.750Z,7.51
2022-09-30T22:24:09.609Z,7.48
2022-09-30T22:26:39.901Z,7.47
2022-09-30T22:29:12.611Z,7.46
2022-09-30T22:31:41.918Z,7.48
2022-09-30T22:34:32.701Z,7.52
2022-09-30T22:37:19.554Z,7.54
2022-09-30T22:39:48.682Z,7.58
2022-09-30T22:42:18.091Z,7.59
2022-09-30T22:44:47.917Z,7.56
2022-09-30T22:47:17.443Z,7.56
2022-09-30T22:49:47.930Z,7.55
2022-09-30T22:52:17.166Z,7.58
2022-09-30T22:54:46.295Z,7.72
2022-09-30T22:57:16.214Z,7.84
2022-09-30T22:59:47.579Z,7.89
2022-09-30T23:02:16.818Z,7.99
2022-09-30T23:04:47.327Z,8.03
2022-09-30T23:07:16.436Z,8.11
2022-09-30T23:09:46.042Z,8.14
2022-09-30T23:12:15.157Z,8.17
2022-09-30T23:14:44.864Z,8.19
2022-09-30T23:17:16.796Z,8.21
2022-09-30T23:19:47.346Z,8.21
2022-09-30T23:22:18.623Z,8.20
2022-09-30T23:24:47.753Z,8.19
2022-09-30T23:27:16.877Z,8.20
2022-09-30T23:29:46.004Z,8.19
2022-09-30T23:32:15.183Z,8.18
2022-09-30T23:34:44.347Z,8.18
2022-09-30T23:37:15.146Z,8.17
2022-09-30T23:39:44.258Z,8.17
2022-09-30T23:42:13.409Z,8.18
2022-09-30T23:44:42.518Z,8.20
2022-09-30T23:47:21.405Z,8.19
2022-09-30T23:49:50.879Z,8.23
2022-09-30T23:52:21.476Z,8.25
2022-09-30T23:54:50.594Z,8.26
2022-09-30T23:57:19.763Z,8.28
2022-09-30T23:59:48.901Z,8.29
